Time;durP1;ratioP1;P1;durP2;ratioP2;P2;SDS_P1;SDS_P2;PMS_P1;PMS_P2;Temp;Humidity;BMP_temperature;BMP_pressure;BME280_temperature;BME280_humidity;BME280_pressure;Samples;Min_cycle;Max_cycle;Signal;HPM_P1;HPM_P2
2021/12/13 00:02:12;;;;;;;49.88;19.80;;;11.70;99.90;;;;;;4981009;28;20049;-83
2021/12/13 00:05:01;;;;;;;54.42;20.52;;;11.70;99.90;;;;;;4980364;28;20497;-83
2021/12/13 00:07:32;;;;;;;36.80;18.35;;;11.80;99.90;;;;;;4997522;28;20490;-83
2021/12/13 00:10:05;;;;;;;39.25;18.00;;;11.80;99.90;;;;;;4992371;28;20034;-83
2021/12/13 00:12:35;;;;;;;43.45;18.88;;;11.80;99.90;;;;;;5016640;28;20061;-84
2021/12/13 00:15:06;;;;;;;39.75;18.42;;;11.70;99.90;;;;;;4994144;28;20041;-84
2021/12/13 00:17:53;;;;;;;52.13;21.65;;;11.70;99.90;;;;;;4998273;28;20033;-83
2021/12/13 00:20:36;;;;;;;43.05;18.50;;;11.70;99.90;;;;;;4979479;28;20044;-83
2021/12/13 00:23:20;;;;;;;41.00;19.15;;;11.70;99.90;;;;;;4979950;28;20542;-83
2021/12/13 00:25:52;;;;;;;40.75;19.38;;;11.80;99.90;;;;;;4998182;28;20042;-84
2021/12/13 00:28:20;;;;;;;41.60;19.52;;;11.80;99.90;;;;;;4995770;28;20045;-83
2021/12/13 00:31:24;;;;;;;39.42;19.30;;;11.80;99.90;;;;;;4995021;28;20045;-84
2021/12/13 00:33:59;;;;;;;47.83;20.45;;;11.80;99.90;;;;;;4982593;28;20090;-83
2021/12/13 00:36:37;;;;;;;48.35;20.90;;;11.70;99.90;;;;;;4979137;28;20053;-84
2021/12/13 00:39:11;;;;;;;50.58;21.50;;;11.80;99.90;;;;;;4980877;28;20045;-84
2021/12/13 00:41:41;;;;;;;47.80;20.83;;;11.70;99.90;;;;;;4997816;28;20089;-83
2021/12/13 00:44:14;;;;;;;57.67;21.88;;;11.70;99.90;;;;;;4998895;28;20038;-83
2021/12/13 00:46:43;;;;;;;46.78;19.63;;;11.80;99.90;;;;;;4981064;28;20128;-83
2021/12/13 00:49:13;;;;;;;62.83;22.90;;;11.80;99.90;;;;;;4996622;28;20033;-83
2021/12/13 00:51:46;;;;;;;59.08;23.23;;;11.70;99.90;;;;;;4980148;28;20121;-83
2021/12/13 00:54:21;;;;;;;64.55;23.40;;;11.80;99.90;;;;;;4997291;28;20137;-83
2021/12/13 00:56:58;;;;;;;62.58;23.58;;;11.70;99.90;;;;;;5008435;28;20191;-83
2021/12/13 00:59:40;;;;;;;70.03;24.95;;;11.70;99.90;;;;;;5001271;28;20034;-83
2021/12/13 01:02:05;;;;;;;71.82;24.50;;;11.70;99.90;;;;;;4986257;28;20064;-84
2021/12/13 01:04:48;;;;;;;74.07;25.10;;;11.70;99.90;;;;;;5016664;28;20812;-83
2021/12/13 01:07:32;;;;;;;88.45;27.95;;;11.70;99.90;;;;;;5000757;28;20042;-83
2021/12/13 01:10:42;;;;;;;99.35;27.92;;;11.80;99.90;;;;;;5000811;28;20030;-83
2021/12/13 01:13:23;;;;;;;85.28;27.60;;;11.80;99.90;;;;;;4985281;28;20049;-83
2021/12/13 01:15:57;;;;;;;101.10;28.05;;;11.80;99.90;;;;;;4999019;28;20046;-84
2021/12/13 01:18:35;;;;;;;120.40;30.02;;;11.80;99.90;;;;;;4983451;28;20051;-83
2021/12/13 01:21:28;;;;;;;132.90;31.92;;;11.80;99.90;;;;;;4980865;28;20041;-83
2021/12/13 01:24:06;;;;;;;117.68;29.83;;;11.70;99.90;;;;;;4983457;28;20104;-83
2021/12/13 01:26:46;;;;;;;116.10;29.83;;;11.80;99.90;;;;;;5009969;28;20038;-84
2021/12/13 01:29:27;;;;;;;88.18;27.40;;;11.70;99.90;;;;;;4986317;28;20033;-84
2021/12/13 01:32:00;;;;;;;85.75;26.65;;;11.80;99.90;;;;;;5017537;28;20026;-84
2021/12/13 01:34:32;;;;;;;96.57;27.05;;;11.80;99.90;;;;;;4997673;28;20076;-84
2021/12/13 01:37:08;;;;;;;88.70;27.20;;;11.80;99.90;;;;;;4984077;28;20034;-83
2021/12/13 01:39:38;;;;;;;105.90;28.33;;;11.70;99.90;;;;;;5000487;28;20073;-83
2021/12/13 01:42:12;;;;;;;85.63;25.65;;;11.80;99.90;;;;;;4984759;28;20092;-83
2021/12/13 01:44:43;;;;;;;75.50;25.02;;;11.70;99.90;;;;;;4984585;28;20476;-84
2021/12/13 01:47:14;;;;;;;70.50;23.15;;;11.80;99.90;;;;;;4985229;28;20034;-83
2021/12/13 01:49:43;;;;;;;66.85;22.58;;;11.70;99.90;;;;;;4995592;28;20375;-83
2021/12/13 01:52:26;;;;;;;60.42;22.20;;;11.80;99.90;;;;;;5012661;28;20037;-84
2021/12/13 01:54:54;;;;;;;58.30;21.95;;;11.80;99.90;;;;;;5015752;28;20089;-83
2021/12/13 01:57:39;;;;;;;55.92;21.50;;;11.80;99.90;;;;;;4998336;28;20571;-83
2021/12/13 02:00:18;;;;;;;56.15;21.08;;;11.80;99.90;;;;;;4982558;28;20057;-83
2021/12/13 02:02:46;;;;;;;57.63;19.98;;;11.70;99.90;;;;;;4999626;28;20049;-83
2021/12/13 02:05:13;;;;;;;39.67;17.88;;;11.70;99.90;;;;;;4995989;28;20046;-83
2021/12/13 02:07:47;;;;;;;43.20;18.55;;;11.70;99.90;;;;;;5000624;28;20161;-83
2021/12/13 02:10:52;;;;;;;44.72;19.17;;;11.80;99.90;;;;;;5010957;28;20088;-83
2021/12/13 02:13:25;;;;;;;45.55;19.13;;;11.70;99.90;;;;;;4999061;28;20386;-84
2021/12/13 02:18:50;;;;;;;41.22;18.92;;;11.70;99.90;;;;;;4999511;28;20045;-83
2021/12/13 02:21:26;;;;;;;45.10;19.13;;;11.70;99.90;;;;;;4996347;28;20497;-83
2021/12/13 02:23:55;;;;;;;44.72;20.42;;;11.70;99.90;;;;;;4982202;28;20045;-83
2021/12/13 02:26:21;;;;;;;41.72;20.48;;;11.70;99.90;;;;;;4998412;28;20634;-84
2021/12/13 02:28:53;;;;;;;45.20;22.08;;;11.70;99.90;;;;;;4998826;28;20048;-83
2021/12/13 02:31:26;;;;;;;37.63;21.40;;;11.70;99.90;;;;;;4999641;28;20133;-83
2021/12/13 02:33:59;;;;;;;45.78;21.63;;;11.70;99.90;;;;;;4983155;28;20034;-83
2021/12/13 02:36:38;;;;;;;50.78;22.95;;;11.70;99.90;;;;;;4980287;28;20164;-83
2021/12/13 02:39:11;;;;;;;43.13;21.75;;;11.70;99.90;;;;;;4997183;28;20090;-83
2021/12/13 02:41:38;;;;;;;46.53;22.80;;;11.70;99.90;;;;;;4980477;28;20334;-83
2021/12/13 02:44:22;;;;;;;45.83;24.08;;;11.70;99.90;;;;;;4982794;28;20128;-83
2021/12/13 02:46:50;;;;;;;46.80;24.83;;;11.70;99.90;;;;;;5016119;28;20243;-83
2021/12/13 02:49:18;;;;;;;44.90;24.75;;;11.70;99.90;;;;;;4984655;28;20480;-83
2021/12/13 02:51:59;;;;;;;47.40;25.58;;;11.80;99.90;;;;;;4996432;28;20026;-83
2021/12/13 02:54:37;;;;;;;55.47;26.77;;;11.70;99.90;;;;;;4995241;28;20628;-83
2021/12/13 02:57:16;;;;;;;52.08;26.10;;;11.70;99.90;;;;;;4999395;28;20058;-83
2021/12/13 02:59:47;;;;;;;47.83;26.38;;;11.70;99.90;;;;;;4990269;28;20359;-83
2021/12/13 03:02:22;;;;;;;48.13;24.52;;;11.70;99.90;;;;;;4998293;28;20208;-83
2021/12/13 03:04:50;;;;;;;45.63;24.23;;;11.60;99.90;;;;;;4978109;28;20045;-83
2021/12/13 03:07:26;;;;;;;48.30;24.63;;;11.70;99.90;;;;;;5010611;28;20404;-83
2021/12/13 03:09:59;;;;;;;43.25;22.83;;;11.50;99.90;;;;;;4980466;28;20112;-83
2021/12/13 03:12:28;;;;;;;44.47;21.60;;;11.50;99.90;;;;;;4994282;28;20388;-83
2021/12/13 03:14:58;;;;;;;42.00;21.73;;;11.60;99.90;;;;;;4981068;28;20037;-83
2021/12/13 03:17:26;;;;;;;44.90;21.15;;;11.50;99.90;;;;;;5000677;28;20125;-84
2021/12/13 03:20:13;;;;;;;46.38;21.42;;;11.40;99.90;;;;;;5006320;28;20042;-83
2021/12/13 03:22:46;;;;;;;44.13;20.25;;;11.40;99.90;;;;;;4995809;28;20037;-83
2021/12/13 03:25:33;;;;;;;39.53;19.25;;;11.50;99.90;;;;;;4999590;28;20025;-83
2021/12/13 03:28:12;;;;;;;37.42;17.80;;;11.40;99.90;;;;;;4999342;28;20057;-83
2021/12/13 03:30:53;;;;;;;40.15;18.70;;;11.40;99.90;;;;;;4996417;28;20089;-83
2021/12/13 03:33:25;;;;;;;35.78;16.30;;;11.50;99.90;;;;;;5000321;28;20064;-83
2021/12/13 03:35:54;;;;;;;31.40;16.30;;;11.40;99.90;;;;;;4980310;28;20037;-83
2021/12/13 03:38:38;;;;;;;32.15;15.93;;;11.40;99.90;;;;;;4982125;28;20067;-83
2021/12/13 03:41:10;;;;;;;37.47;14.73;;;11.40;99.90;;;;;;4976448;28;20065;-83
2021/12/13 03:43:42;;;;;;;34.42;15.13;;;11.40;99.90;;;;;;4996809;28;20493;-83
2021/12/13 03:46:11;;;;;;;32.95;14.40;;;11.40;99.90;;;;;;4997101;28;20092;-83
2021/12/13 03:48:39;;;;;;;34.35;14.93;;;11.30;99.90;;;;;;5015384;28;20037;-83
2021/12/13 03:51:09;;;;;;;32.50;15.70;;;11.40;99.90;;;;;;4994983;28;20098;-83
2021/12/13 03:53:36;;;;;;;31.95;14.93;;;11.30;99.90;;;;;;4979204;28;20058;-83
2021/12/13 03:56:10;;;;;;;29.88;15.07;;;11.30;99.90;;;;;;4963306;28;20459;-83
2021/12/13 03:58:39;;;;;;;27.63;15.23;;;11.30;99.90;;;;;;4973208;28;20042;-84
2021/12/13 04:01:34;;;;;;;31.63;14.73;;;11.30;99.90;;;;;;4978154;28;20045;-83
2021/12/13 04:04:04;;;;;;;23.42;13.23;;;11.30;99.90;;;;;;4989304;28;20038;-83
2021/12/13 04:06:30;;;;;;;25.60;13.82;;;11.20;99.90;;;;;;4975159;28;20100;-83
2021/12/13 04:08:58;;;;;;;28.33;13.25;;;11.20;99.90;;;;;;4963598;28;20482;-83
2021/12/13 04:11:28;;;;;;;23.05;11.80;;;11.20;99.90;;;;;;4960137;28;20039;-83
2021/12/13 04:14:12;;;;;;;26.33;12.38;;;11.10;99.90;;;;;;4977864;28;20038;-83
2021/12/13 04:16:49;;;;;;;21.95;11.43;;;11.10;99.90;;;;;;4990775;28;20429;-83
2021/12/13 04:19:24;;;;;;;21.67;10.40;;;11.20;99.90;;;;;;4978149;28;20046;-83
2021/12/13 04:21:56;;;;;;;21.15;9.63;;;11.10;99.90;;;;;;4993570;28;20046;-83
2021/12/13 04:24:34;;;;;;;16.55;9.57;;;11.10;99.90;;;;;;4961197;28;20046;-83
2021/12/13 04:27:22;;;;;;;19.35;9.82;;;11.10;99.90;;;;;;4978103;28;20038;-83
2021/12/13 04:29:52;;;;;;;18.05;9.43;;;11.00;99.90;;;;;;4976572;28;20266;-83
2021/12/13 04:32:17;;;;;;;22.05;9.77;;;11.00;99.90;;;;;;4978726;28;20057;-83
2021/12/13 04:34:43;;;;;;;19.05;9.32;;;10.90;99.90;;;;;;4992862;28;20373;-83
2021/12/13 04:37:19;;;;;;;16.15;7.78;;;10.90;99.90;;;;;;4982595;28;20042;-83
2021/12/13 04:39:50;;;;;;;19.92;8.30;;;10.90;99.90;;;;;;4979605;28;20045;-84
2021/12/13 04:42:19;;;;;;;12.95;7.03;;;10.90;99.90;;;;;;4982436;28;20478;-83
2021/12/13 04:44:56;;;;;;;13.00;6.68;;;10.90;99.90;;;;;;4978790;28;20478;-83
2021/12/13 04:47:30;;;;;;;12.25;5.47;;;10.90;99.90;;;;;;4963842;28;20049;-83
2021/12/13 04:50:31;;;;;;;12.07;5.70;;;10.80;99.90;;;;;;4974289;28;20049;-83
2021/12/13 04:52:57;;;;;;;9.93;4.95;;;10.80;99.90;;;;;;4966718;28;20050;-83
2021/12/13 04:55:37;;;;;;;10.75;5.38;;;10.80;99.90;;;;;;5000698;28;20053;-83
2021/12/13 04:58:09;;;;;;;10.50;5.47;;;10.70;99.90;;;;;;5005253;28;20057;-83
2021/12/13 05:00:40;;;;;;;12.30;5.28;;;10.70;99.90;;;;;;5008562;28;20048;-83
2021/12/13 05:03:08;;;;;;;10.07;5.10;;;10.70;99.90;;;;;;5015608;28;20049;-83
2021/12/13 05:05:35;;;;;;;9.60;5.90;;;10.70;99.90;;;;;;5002302;28;20389;-83
2021/12/13 05:08:02;;;;;;;13.70;6.47;;;10.70;99.90;;;;;;5020217;28;20215;-83
2021/12/13 05:10:31;;;;;;;16.80;7.57;;;10.70;99.90;;;;;;5002691;28;20086;-83
2021/12/13 05:13:03;;;;;;;20.42;8.05;;;10.70;99.90;;;;;;5002746;28;20380;-83
2021/12/13 05:15:30;;;;;;;16.80;8.25;;;10.60;99.90;;;;;;4993790;28;20033;-83
2021/12/13 05:17:57;;;;;;;16.17;8.63;;;10.70;99.90;;;;;;4989742;28;20049;-83
2021/12/13 05:20:34;;;;;;;17.55;8.82;;;10.70;99.90;;;;;;5001210;28;20045;-83
2021/12/13 05:23:08;;;;;;;17.70;8.48;;;10.60;99.90;;;;;;5005472;28;20041;-83
2021/12/13 05:25:43;;;;;;;17.85;9.10;;;10.50;99.90;;;;;;4987644;28;20425;-83
2021/12/13 05:28:14;;;;;;;16.25;8.90;;;10.60;99.90;;;;;;5003789;28;20037;-83
2021/12/13 05:31:08;;;;;;;16.35;8.57;;;10.60;99.90;;;;;;4987503;28;20030;-83
2021/12/13 05:33:36;;;;;;;17.77;8.93;;;10.50;99.90;;;;;;5003640;28;20037;-82
2021/12/13 05:36:17;;;;;;;17.70;9.32;;;10.50;99.90;;;;;;4985432;28;20061;-83
2021/12/13 05:38:46;;;;;;;18.52;9.43;;;10.60;99.90;;;;;;4989206;28;20139;-83
2021/12/13 05:41:23;;;;;;;17.30;8.75;;;10.60;99.90;;;;;;5000541;28;20044;-83
2021/12/13 05:43:53;;;;;;;16.85;9.15;;;10.60;99.90;;;;;;5018861;28;20057;-83
2021/12/13 05:46:41;;;;;;;16.85;8.93;;;10.50;99.90;;;;;;5005561;28;20460;-83
2021/12/13 05:49:16;;;;;;;17.13;9.65;;;10.50;99.90;;;;;;4986100;28;20115;-83
2021/12/13 05:51:45;;;;;;;19.52;9.48;;;10.50;99.90;;;;;;5002722;28;20068;-83
2021/12/13 05:54:33;;;;;;;18.50;10.30;;;10.40;99.90;;;;;;5000032;28;20050;-83
2021/12/13 05:57:13;;;;;;;23.50;10.13;;;10.50;99.90;;;;;;5000701;28;20463;-83
2021/12/13 06:00:02;;;;;;;18.30;9.48;;;10.40;99.90;;;;;;5001779;28;20045;-83
2021/12/13 06:03:05;;;;;;;20.58;9.93;;;10.40;99.90;;;;;;4997621;28;20076;-83
2021/12/13 06:05:39;;;;;;;19.88;9.98;;;10.40;99.90;;;;;;4995651;28;20048;-83
2021/12/13 06:08:40;;;;;;;21.45;9.90;;;10.40;99.90;;;;;;4986405;28;20049;-83
2021/12/13 06:11:13;;;;;;;20.90;10.18;;;10.50;99.90;;;;;;4975825;28;20045;-83
2021/12/13 06:13:46;;;;;;;20.40;9.40;;;10.50;99.90;;;;;;5000083;28;20042;-83
2021/12/13 06:16:35;;;;;;;20.73;10.60;;;10.50;99.90;;;;;;4996851;28;20046;-83
2021/12/13 06:19:08;;;;;;;17.00;9.85;;;10.40;99.90;;;;;;4976580;28;20133;-83
2021/12/13 06:21:40;;;;;;;15.35;9.80;;;10.40;99.90;;;;;;4997865;28;20432;-83
2021/12/13 06:24:07;;;;;;;17.08;9.52;;;10.40;99.90;;;;;;4995715;28;20273;-83
2021/12/13 06:26:34;;;;;;;17.52;9.75;;;10.40;99.90;;;;;;4994157;28;20096;-83
2021/12/13 06:29:04;;;;;;;17.48;10.20;;;10.40;99.90;;;;;;4984884;28;20088;-83
2021/12/13 06:31:43;;;;;;;23.60;9.52;;;10.40;99.90;;;;;;4998895;28;20388;-83
2021/12/13 06:34:15;;;;;;;14.15;9.32;;;10.40;99.90;;;;;;4999568;28;20034;-83
2021/12/13 06:36:45;;;;;;;16.70;9.65;;;10.40;99.90;;;;;;4998449;28;20124;-83
2021/12/13 06:39:14;;;;;;;19.35;9.90;;;10.40;99.90;;;;;;4984758;28;20038;-84
2021/12/13 06:41:46;;;;;;;16.98;10.10;;;10.40;99.90;;;;;;4994088;28;20184;-82
2021/12/13 06:44:30;;;;;;;16.73;10.05;;;10.40;99.90;;;;;;4993828;28;20052;-83
2021/12/13 06:46:55;;;;;;;18.63;9.38;;;10.30;99.90;;;;;;4984770;28;20413;-83
2021/12/13 06:49:23;;;;;;;15.23;9.23;;;10.40;99.90;;;;;;4984037;28;20106;-83
2021/12/13 06:52:01;;;;;;;14.82;9.50;;;10.30;99.90;;;;;;4999162;28;20367;-83
2021/12/13 06:54:29;;;;;;;15.45;9.98;;;10.40;99.90;;;;;;5013609;28;20535;-83
2021/12/13 06:56:59;;;;;;;17.13;10.32;;;10.30;99.90;;;;;;4983427;28;20107;-83
2021/12/13 06:59:28;;;;;;;14.40;10.07;;;10.30;99.90;;;;;;4984033;28;20061;-83
2021/12/13 07:02:26;;;;;;;21.35;11.48;;;10.30;99.90;;;;;;4996845;28;20208;-83
2021/12/13 07:05:08;;;;;;;18.75;10.88;;;10.30;99.90;;;;;;4954586;28;20061;-83
2021/12/13 07:07:48;;;;;;;18.00;11.52;;;10.30;99.90;;;;;;4996811;28;20034;-83
2021/12/13 07:10:20;;;;;;;18.42;10.15;;;10.30;99.90;;;;;;4999422;28;20347;-83
2021/12/13 07:12:56;;;;;;;17.20;10.60;;;10.20;99.90;;;;;;5010279;28;20049;-83
2021/12/13 07:15:31;;;;;;;15.63;10.98;;;10.30;99.90;;;;;;4983347;28;20072;-83
2021/12/13 07:18:04;;;;;;;;;;;10.20;99.90;;;;;;5000918;28;20084;-83
2021/12/13 07:20:56;;;;;;;18.58;11.25;;;10.30;99.90;;;;;;4980193;28;19956;-83
2021/12/13 07:23:22;;;;;;;18.92;11.45;;;10.20;99.90;;;;;;5001024;28;20452;-83
2021/12/13 07:25:51;;;;;;;19.75;11.60;;;10.20;99.90;;;;;;4981213;28;20038;-83
2021/12/13 07:28:36;;;;;;;20.23;12.00;;;10.30;99.90;;;;;;4983653;28;20494;-83
2021/12/13 07:31:08;;;;;;;21.60;11.85;;;10.30;99.90;;;;;;4981820;28;20037;-83
2021/12/13 07:33:36;;;;;;;19.73;12.32;;;10.30;99.90;;;;;;5000399;28;20089;-83
2021/12/13 07:36:18;;;;;;;20.17;12.57;;;10.30;99.90;;;;;;4989841;28;20049;-82
2021/12/13 07:38:56;;;;;;;21.00;13.30;;;10.20;99.90;;;;;;4999783;28;20053;-83
2021/12/13 07:41:24;;;;;;;23.48;14.00;;;10.30;99.90;;;;;;4998795;28;20048;-83
2021/12/13 07:43:50;;;;;;;22.52;13.43;;;10.20;99.90;;;;;;4981319;28;20129;-83
2021/12/13 07:46:19;;;;;;;22.88;13.95;;;10.20;99.90;;;;;;4980134;28;20038;-82
2021/12/13 07:48:45;;;;;;;24.90;14.50;;;10.30;99.90;;;;;;5008206;28;20052;-83
2021/12/13 07:51:15;;;;;;;22.50;14.55;;;10.20;99.90;;;;;;4994009;28;20594;-83
2021/12/13 07:53:57;;;;;;;23.17;15.02;;;10.20;99.90;;;;;;4999639;28;20057;-83
2021/12/13 07:56:39;;;;;;;24.42;15.55;;;10.20;99.90;;;;;;4999905;28;20497;-83
2021/12/13 07:59:32;;;;;;;28.85;15.50;;;10.20;99.90;;;;;;4991755;28;20077;-83
2021/12/13 08:02:33;;;;;;;26.50;16.20;;;10.30;99.90;;;;;;4999730;28;20422;-83
2021/12/13 08:05:11;;;;;;;24.63;15.40;;;10.20;99.90;;;;;;4981700;28;20053;-83
2021/12/13 08:07:52;;;;;;;24.60;15.55;;;10.20;99.90;;;;;;4998901;28;20041;-83
2021/12/13 08:10:23;;;;;;;25.85;15.55;;;10.30;99.90;;;;;;4997736;28;20720;-83
2021/12/13 08:12:54;;;;;;;26.27;17.08;;;10.30;99.90;;;;;;4985056;28;20481;-83
2021/12/13 08:15:26;;;;;;;30.30;17.17;;;10.30;99.90;;;;;;5001186;28;20121;-83
2021/12/13 08:17:55;;;;;;;28.75;18.25;;;10.30;99.90;;;;;;5000316;28;20053;-83
2021/12/13 08:20:30;;;;;;;26.58;18.00;;;10.30;99.90;;;;;;4979580;28;20076;-83
2021/12/13 08:23:01;;;;;;;26.48;17.48;;;10.30;99.90;;;;;;4982453;28;20485;-83
2021/12/13 08:25:31;;;;;;;27.88;18.30;;;10.30;99.90;;;;;;4998007;28;20502;-83
2021/12/13 08:28:15;;;;;;;28.73;17.92;;;10.30;99.90;;;;;;4983939;28;20041;-83
2021/12/13 08:30:45;;;;;;;29.75;18.48;;;10.30;99.90;;;;;;4998658;28;20069;-82
2021/12/13 08:33:31;;;;;;;28.23;19.73;;;10.30;99.90;;;;;;4994342;28;20121;-83
2021/12/13 08:36:01;;;;;;;32.97;19.45;;;10.40;99.90;;;;;;4980145;28;20484;-83
2021/12/13 08:38:41;;;;;;;28.42;19.40;;;10.40;99.90;;;;;;4983276;28;20088;-83
2021/12/13 08:41:18;;;;;;;26.83;18.08;;;10.40;99.90;;;;;;5002847;28;20497;-83
2021/12/13 08:43:59;;;;;;;29.98;19.08;;;10.40;99.90;;;;;;5005674;28;20576;-83
2021/12/13 08:46:42;;;;;;;30.05;19.63;;;10.30;99.90;;;;;;4988055;28;20042;-83
2021/12/13 08:49:34;;;;;;;32.72;20.35;;;10.40;99.90;;;;;;4986670;28;20469;-83
2021/12/13 08:52:05;;;;;;;28.23;19.42;;;10.40;99.90;;;;;;4984039;28;20068;-83
2021/12/13 08:54:36;;;;;;;29.17;19.83;;;10.40;99.90;;;;;;4980793;28;20444;-83
2021/12/13 08:57:04;;;;;;;28.17;19.42;;;10.40;99.90;;;;;;4985798;28;20520;-83
2021/12/13 08:59:30;;;;;;;28.65;20.10;;;10.40;99.90;;;;;;4969731;28;20046;-83
2021/12/13 09:02:05;;;;;;;32.53;19.23;;;10.40;99.90;;;;;;4969438;28;20133;-83
2021/12/13 09:04:35;;;;;;;30.27;20.13;;;10.50;99.90;;;;;;4984043;28;20050;-83
2021/12/13 09:07:04;;;;;;;32.30;20.10;;;10.40;99.90;;;;;;4968778;28;20034;-83
2021/12/13 09:09:30;;;;;;;27.13;20.15;;;10.40;99.90;;;;;;4985257;28;20042;-83
2021/12/13 09:12:03;;;;;;;31.58;20.35;;;10.50;99.90;;;;;;4969240;28;20035;-83
2021/12/13 09:14:39;;;;;;;27.40;19.90;;;10.50;99.90;;;;;;4969159;28;20031;-83
2021/12/13 09:17:31;;;;;;;28.88;20.20;;;10.50;99.90;;;;;;4967925;28;20938;-83
2021/12/13 09:20:06;;;;;;;31.25;19.95;;;10.50;99.90;;;;;;4973634;28;20074;-83
2021/12/13 09:22:41;;;;;;;31.17;21.58;;;10.50;99.90;;;;;;5002320;28;20054;-83
2021/12/13 09:25:27;;;;;;;30.45;20.23;;;10.60;99.90;;;;;;4993492;28;20437;-83
2021/12/13 09:27:59;;;;;;;29.48;20.52;;;10.50;99.90;;;;;;4986912;28;20042;-83
2021/12/13 09:30:33;;;;;;;26.75;20.10;;;10.50;99.90;;;;;;4968062;28;20030;-83
2021/12/13 09:33:10;;;;;;;26.65;19.42;;;10.60;99.90;;;;;;4984973;28;20034;-83
2021/12/13 09:35:44;;;;;;;28.45;20.17;;;10.60;99.90;;;;;;4967163;28;20077;-83
2021/12/13 09:38:39;;;;;;;28.70;19.97;;;10.60;99.90;;;;;;5000571;28;20141;-83
2021/12/13 09:41:07;;;;;;;30.27;19.00;;;10.70;99.90;;;;;;4984330;28;20108;-83
2021/12/13 09:44:05;;;;;;;26.88;19.10;;;10.60;99.90;;;;;;4970197;28;20119;-83
2021/12/13 09:46:42;;;;;;;27.90;19.20;;;10.60;99.90;;;;;;4994487;28;20078;-83
2021/12/13 09:49:25;;;;;;;27.38;18.63;;;10.60;99.90;;;;;;4982110;28;20046;-83
2021/12/13 09:52:18;;;;;;;24.95;18.55;;;10.60;99.90;;;;;;4969801;28;20383;-82
2021/12/13 09:54:52;;;;;;;26.02;18.15;;;10.60;99.90;;;;;;4994267;28;20042;-82
2021/12/13 09:57:24;;;;;;;28.13;18.20;;;10.60;99.90;;;;;;4999676;28;20249;-82
2021/12/13 09:59:53;;;;;;;26.67;18.55;;;10.60;99.90;;;;;;4979248;28;20521;-82
2021/12/13 10:02:31;;;;;;;24.92;17.58;;;10.60;99.90;;;;;;5002633;28;20034;-83
2021/12/13 10:05:02;;;;;;;26.52;18.35;;;10.60;99.90;;;;;;4995510;28;20042;-83
2021/12/13 10:07:37;;;;;;;21.77;17.48;;;10.60;99.90;;;;;;5001472;28;20449;-83
2021/12/13 10:10:14;;;;;;;24.10;17.52;;;10.70;99.90;;;;;;5002420;28;20350;-83
2021/12/13 10:12:45;;;;;;;23.63;17.17;;;10.60;99.90;;;;;;4986504;28;20034;-83
2021/12/13 10:15:23;;;;;;;23.20;17.05;;;10.60;99.90;;;;;;5011436;28;20042;-83
2021/12/13 10:17:52;;;;;;;23.73;16.63;;;10.60;99.90;;;;;;5000454;28;20038;-83
2021/12/13 10:20:22;;;;;;;23.55;16.77;;;10.60;99.90;;;;;;4997045;28;20041;-83
2021/12/13 10:22:50;;;;;;;22.52;15.75;;;10.50;99.90;;;;;;5003000;28;20095;-83
2021/12/13 10:25:29;;;;;;;21.67;16.42;;;10.60;99.90;;;;;;4999786;28;20192;-83
2021/12/13 10:27:55;;;;;;;26.50;16.65;;;10.60;99.90;;;;;;4996786;28;20034;-83
2021/12/13 10:30:32;;;;;;;22.08;15.68;;;10.50;99.90;;;;;;4983961;28;20954;-83
2021/12/13 10:32:58;;;;;;;24.25;16.45;;;10.50;99.90;;;;;;4985847;28;20045;-82
2021/12/13 10:35:29;;;;;;;22.05;15.35;;;10.50;99.90;;;;;;4982267;28;20042;-82
2021/12/13 10:38:04;;;;;;;23.45;16.25;;;10.50;99.90;;;;;;4999860;28;20088;-83
2021/12/13 10:40:41;;;;;;;22.90;15.63;;;10.60;99.90;;;;;;5013566;28;20069;-83
2021/12/13 10:43:12;;;;;;;23.33;16.63;;;10.60;99.90;;;;;;4997767;28;20198;-83
2021/12/13 10:45:55;;;;;;;19.92;15.18;;;10.60;99.90;;;;;;4984998;28;20045;-83
2021/12/13 10:48:26;;;;;;;20.13;14.65;;;10.70;99.90;;;;;;4997797;28;20422;-83
2021/12/13 10:51:06;;;;;;;18.42;14.43;;;10.70;99.90;;;;;;4996217;28;21871;-83
2021/12/13 10:53:34;;;;;;;19.77;14.05;;;10.80;99.90;;;;;;4997832;28;20042;-83
2021/12/13 10:56:05;;;;;;;19.10;15.02;;;10.70;99.90;;;;;;4988838;28;20041;-83
2021/12/13 10:58:36;;;;;;;20.92;14.88;;;10.70;99.90;;;;;;5001059;28;20516;-83
2021/12/13 11:01:08;;;;;;;21.20;15.40;;;10.70;99.90;;;;;;4988033;28;20037;-83
2021/12/13 11:03:36;;;;;;;22.63;15.18;;;10.70;99.90;;;;;;5021265;28;20045;-83
2021/12/13 11:06:03;;;;;;;20.52;14.52;;;10.60;99.90;;;;;;4987100;28;20033;-83
2021/12/13 11:08:30;;;;;;;20.35;15.63;;;10.70;99.90;;;;;;4989226;28;20411;-82
2021/12/13 11:11:01;;;;;;;21.73;14.20;;;10.70;99.90;;;;;;5004080;28;20481;-83
2021/12/13 11:13:31;;;;;;;20.48;14.98;;;10.70;99.90;;;;;;4988042;28;20321;-83
2021/12/13 11:16:02;;;;;;;22.75;15.57;;;10.70;99.90;;;;;;5003411;28;20051;-83
2021/12/13 11:18:28;;;;;;;20.85;15.30;;;10.80;99.90;;;;;;4987686;28;20400;-83
2021/12/13 11:21:00;;;;;;;20.20;14.75;;;10.70;99.90;;;;;;4998181;28;20112;-83
2021/12/13 11:23:26;;;;;;;21.70;15.15;;;10.80;99.90;;;;;;4987652;28;20158;-83
2021/12/13 11:25:57;;;;;;;21.67;14.68;;;10.80;99.90;;;;;;4987390;28;20064;-83
2021/12/13 11:28:24;;;;;;;24.20;15.25;;;10.80;99.90;;;;;;5004234;28;20049;-83
2021/12/13 11:30:52;;;;;;;21.38;14.32;;;10.90;99.90;;;;;;5001730;28;20110;-82
2021/12/13 11:33:39;;;;;;;22.08;13.98;;;10.90;99.90;;;;;;5020343;28;20045;-83
2021/12/13 11:36:10;;;;;;;19.38;13.95;;;10.90;99.90;;;;;;4997361;28;20052;-83
2021/12/13 11:39:14;;;;;;;20.27;14.52;;;10.90;99.90;;;;;;5018721;28;20041;-83
2021/12/13 11:42:17;;;;;;;20.80;13.90;;;11.00;99.90;;;;;;5000172;28;20085;-83
2021/12/13 11:45:01;;;;;;;23.20;14.20;;;11.00;99.90;;;;;;4998904;28;20129;-83
2021/12/13 11:47:49;;;;;;;21.05;13.95;;;11.00;99.90;;;;;;4987831;28;20159;-83
2021/12/13 11:50:54;;;;;;;22.55;14.50;;;11.20;99.90;;;;;;4999551;28;20416;-82
2021/12/13 11:53:41;;;;;;;19.15;13.93;;;11.10;99.90;;;;;;5000180;28;20084;-83
2021/12/13 11:56:34;;;;;;;21.92;13.30;;;11.20;99.90;;;;;;5000499;28;20334;-83
2021/12/13 11:59:10;;;;;;;23.38;14.32;;;11.10;99.90;;;;;;4982471;28;20029;-83
2021/12/13 12:01:43;;;;;;;22.60;13.90;;;11.10;99.90;;;;;;5002953;28;20099;-83
2021/12/13 12:04:33;;;;;;;21.00;13.95;;;11.10;99.90;;;;;;4988449;28;20153;-83
2021/12/13 12:07:33;;;;;;;22.52;14.98;;;11.20;99.90;;;;;;5000663;28;20465;-83
2021/12/13 12:10:25;;;;;;;21.02;14.63;;;11.20;99.90;;;;;;5003352;28;20060;-83
2021/12/13 12:13:14;;;;;;;18.45;13.20;;;11.20;99.90;;;;;;4988131;28;20064;-83
2021/12/13 12:15:42;;;;;;;20.83;13.82;;;11.20;99.90;;;;;;5003521;28;20034;-83
2021/12/13 12:18:14;;;;;;;20.27;14.35;;;11.20;99.90;;;;;;5008503;28;20041;-83
2021/12/13 12:20:53;;;;;;;21.23;14.27;;;11.30;99.90;;;;;;4986801;28;20369;-83
2021/12/13 12:23:42;;;;;;;17.73;13.38;;;11.20;99.90;;;;;;5004455;28;20078;-83
2021/12/13 12:26:08;;;;;;;19.67;13.15;;;11.30;99.90;;;;;;4986265;28;20080;-83
2021/12/13 12:28:34;;;;;;;21.67;14.05;;;11.20;99.90;;;;;;5001697;28;20061;-83
2021/12/13 12:31:02;;;;;;;23.88;13.70;;;11.20;99.90;;;;;;5001356;28;20038;-83
2021/12/13 12:33:34;;;;;;;20.85;14.45;;;11.20;99.90;;;;;;4999301;28;20037;-83
2021/12/13 12:36:40;;;;;;;21.20;14.77;;;11.10;99.90;;;;;;4996604;28;20435;-83
2021/12/13 12:39:40;;;;;;;21.40;14.52;;;11.10;99.90;;;;;;4996509;28;20054;-83
2021/12/13 12:42:30;;;;;;;24.42;15.68;;;11.00;99.90;;;;;;4984091;28;20260;-83
2021/12/13 12:44:56;;;;;;;26.45;15.00;;;10.90;99.90;;;;;;4999563;28;20493;-83
2021/12/13 12:47:34;;;;;;;24.50;15.57;;;10.90;99.90;;;;;;4985814;28;20044;-83
2021/12/13 12:50:30;;;;;;;23.92;15.20;;;10.80;99.90;;;;;;4998763;28;20060;-83
2021/12/13 12:53:09;;;;;;;24.23;16.27;;;10.80;99.90;;;;;;5002893;28;20609;-83
2021/12/13 12:55:40;;;;;;;27.17;16.33;;;10.90;99.90;;;;;;4999058;28;20672;-83
2021/12/13 12:58:14;;;;;;;26.10;16.33;;;10.80;99.90;;;;;;5002695;28;20045;-83
2021/12/13 13:00:41;;;;;;;29.38;16.58;;;10.80;99.90;;;;;;4986333;28;20046;-83
2021/12/13 13:03:12;;;;;;;28.25;15.95;;;10.80;99.90;;;;;;4987299;28;20069;-83
2021/12/13 13:05:42;;;;;;;27.88;16.52;;;10.70;99.90;;;;;;4983972;28;20045;-83
2021/12/13 13:08:09;;;;;;;26.10;17.08;;;10.80;99.90;;;;;;5002889;28;20081;-83
2021/12/13 13:13:11;;;;;;;28.33;16.58;;;10.90;99.90;;;;;;5004042;28;20160;-83
2021/12/13 13:15:44;;;;;;;27.23;17.02;;;10.90;99.90;;;;;;5001525;28;20041;-83
2021/12/13 13:18:26;;;;;;;23.20;16.70;;;10.80;99.90;;;;;;4997850;28;20567;-83